Time;durP1;ratioP1;P1;durP2;ratioP2;P2;SDS_P1;SDS_P2;PMS_P1;PMS_P2;Temp;Humidity;BMP_temperature;BMP_pressure;BME280_temperature;BME280_humidity;BME280_pressure;Samples;Min_cycle;Max_cycle;Signal;HPM_P1;HPM_P2
2022/01/15 00:00:59;;;;;;;10.60;7.38;;;8.70;60.30;;;;;;5072999;28;20461;-68
2022/01/15 00:03:24;;;;;;;9.85;6.85;;;8.80;60.30;;;;;;5073887;28;20035;-67
2022/01/15 00:05:51;;;;;;;12.02;7.18;;;8.90;60.10;;;;;;5073783;28;20036;-68
2022/01/15 00:08:17;;;;;;;11.52;7.28;;;8.90;60.00;;;;;;5074416;28;20111;-70
2022/01/15 00:10:43;;;;;;;11.23;7.25;;;8.90;59.80;;;;;;5071944;28;20107;-67
2022/01/15 00:13:14;;;;;;;11.10;6.78;;;9.00;59.70;;;;;;5074057;28;20109;-68
2022/01/15 00:15:47;;;;;;;10.85;6.90;;;8.90;59.80;;;;;;5085044;28;20025;-67
2022/01/15 00:18:15;;;;;;;10.75;7.10;;;8.90;60.50;;;;;;5074155;28;20021;-67
2022/01/15 00:20:41;;;;;;;12.20;7.18;;;8.80;60.00;;;;;;5072656;28;20098;-68
2022/01/15 00:23:07;;;;;;;10.70;6.68;;;8.80;59.90;;;;;;5073097;28;20043;-69
2022/01/15 00:25:34;;;;;;;11.18;7.45;;;8.90;59.90;;;;;;5072760;28;20432;-67
2022/01/15 00:28:00;;;;;;;10.38;7.05;;;8.90;59.80;;;;;;5073705;28;20295;-68
2022/01/15 00:30:27;;;;;;;11.57;7.32;;;8.80;59.90;;;;;;5083637;28;20489;-68
2022/01/15 00:32:54;;;;;;;12.93;7.55;;;8.80;59.90;;;;;;5071258;28;20103;-68
2022/01/15 00:35:21;;;;;;;8.95;5.95;;;8.80;60.00;;;;;;5073828;28;20024;-72
2022/01/15 00:37:47;;;;;;;10.18;6.30;;;8.80;59.90;;;;;;5069301;28;20024;-68
2022/01/15 00:40:17;;;;;;;11.23;6.47;;;8.70;59.70;;;;;;5073862;28;20086;-69
2022/01/15 00:42:43;;;;;;;11.88;6.90;;;8.70;59.90;;;;;;5073316;28;20025;-67
2022/01/15 00:45:14;;;;;;;11.20;6.68;;;8.70;59.50;;;;;;5073642;28;20024;-67
2022/01/15 00:47:41;;;;;;;10.20;6.20;;;8.70;59.30;;;;;;5076826;28;20033;-69
2022/01/15 00:50:08;;;;;;;10.55;6.32;;;8.70;59.20;;;;;;5073488;28;20081;-69
2022/01/15 00:52:34;;;;;;;14.88;6.90;;;8.60;59.40;;;;;;5072918;28;20035;-69
2022/01/15 00:55:00;;;;;;;11.05;6.40;;;8.70;59.50;;;;;;5072332;28;20021;-68
2022/01/15 00:57:25;;;;;;;8.45;5.65;;;8.60;59.40;;;;;;5073585;28;20016;-68
2022/01/15 00:59:51;;;;;;;8.98;5.85;;;8.60;59.20;;;;;;5073274;28;20037;-67
2022/01/15 01:02:17;;;;;;;9.18;5.82;;;8.50;59.10;;;;;;5077495;28;20365;-69
2022/01/15 01:04:43;;;;;;;8.85;5.40;;;8.60;59.20;;;;;;5072107;28;20024;-67
2022/01/15 01:07:10;;;;;;;9.88;6.18;;;8.70;59.00;;;;;;5073875;28;20450;-68
2022/01/15 01:22:58;;;;;;;11.15;6.85;;;8.80;58.80;;;;;;5072244;28;20036;-67
2022/01/15 01:25:35;;;;;;;10.32;6.97;;;8.80;58.80;;;;;;5072974;28;20033;-67
2022/01/15 01:28:08;;;;;;;9.93;6.78;;;8.80;58.90;;;;;;5072517;28;20077;-68
2022/01/15 01:30:59;;;;;;;11.55;7.60;;;8.80;58.90;;;;;;5073008;28;20114;-68
2022/01/15 01:36:03;;;;;;;11.52;7.47;;;8.70;59.10;;;;;;5086628;28;20490;-69
2022/01/15 01:38:34;;;;;;;9.18;6.15;;;8.80;59.10;;;;;;5074661;28;20110;-69
2022/01/15 01:41:01;;;;;;;11.38;6.97;;;8.70;59.10;;;;;;5071962;28;20111;-68
2022/01/15 01:43:52;;;;;;;10.60;6.70;;;8.80;59.70;;;;;;5069422;28;20036;-69
2022/01/15 01:46:42;;;;;;;11.15;6.63;;;8.70;59.30;;;;;;5068463;28;20033;-69
2022/01/15 01:49:01;;;;;;;9.65;6.43;;;8.70;59.50;;;;;;5070977;28;20493;-70
2022/01/15 01:51:31;;;;;;;12.15;7.72;;;8.70;60.00;;;;;;5072681;28;20036;-67
2022/01/15 01:54:05;;;;;;;9.52;6.50;;;8.80;59.30;;;;;;5074992;28;20044;-67
2022/01/15 01:56:32;;;;;;;9.93;6.97;;;8.90;59.20;;;;;;5072446;28;20107;-68
2022/01/15 01:58:58;;;;;;;10.30;6.80;;;8.80;59.30;;;;;;5070027;28;20028;-67
2022/01/15 02:01:25;;;;;;;11.50;6.20;;;8.70;59.50;;;;;;5072141;28;20385;-68
2022/01/15 02:03:51;;;;;;;10.05;6.65;;;8.70;59.60;;;;;;5071182;28;20037;-67
2022/01/15 02:06:18;;;;;;;10.15;6.78;;;8.70;59.70;;;;;;5072407;28;20359;-68
2022/01/15 02:08:44;;;;;;;11.73;7.13;;;8.70;59.90;;;;;;5072203;28;20027;-68
2022/01/15 02:11:11;;;;;;;8.55;6.28;;;8.70;59.80;;;;;;5073976;28;20039;-68
2022/01/15 02:13:39;;;;;;;10.95;7.03;;;8.70;60.00;;;;;;5071616;28;20078;-68
2022/01/15 02:16:06;;;;;;;10.05;6.82;;;8.70;60.10;;;;;;5070875;28;20069;-68
2022/01/15 02:18:34;;;;;;;10.48;6.60;;;8.60;60.20;;;;;;5071659;28;20032;-67
2022/01/15 02:23:34;;;;;;;10.60;7.30;;;8.60;60.70;;;;;;5070518;28;20388;-69
2022/01/15 02:26:01;;;;;;;12.65;6.65;;;8.50;61.00;;;;;;5069998;28;20059;-68
2022/01/15 02:28:33;;;;;;;10.00;6.65;;;8.60;60.70;;;;;;5079166;28;20067;-68
2022/01/15 02:31:02;;;;;;;11.70;7.05;;;8.60;60.70;;;;;;5070152;28;20443;-69
2022/01/15 02:33:29;;;;;;;10.30;7.22;;;8.50;60.70;;;;;;5070420;28;20079;-68
2022/01/15 02:35:55;;;;;;;8.93;6.78;;;8.50;61.00;;;;;;5070099;28;20105;-66
2022/01/15 02:38:22;;;;;;;10.25;6.93;;;8.50;60.90;;;;;;5068705;28;20067;-69
2022/01/15 02:40:49;;;;;;;11.75;7.22;;;8.50;60.80;;;;;;5068820;28;20470;-68
2022/01/15 02:43:34;;;;;;;11.35;7.00;;;8.60;60.60;;;;;;5070059;28;20111;-68
2022/01/15 02:46:19;;;;;;;9.98;6.32;;;8.60;60.40;;;;;;5072389;28;20595;-67
2022/01/15 02:48:51;;;;;;;8.48;5.95;;;8.60;60.20;;;;;;5071106;28;20024;-67
2022/01/15 02:51:23;;;;;;;10.27;6.85;;;8.50;60.30;;;;;;5069665;28;20123;-68
2022/01/15 02:53:54;;;;;;;9.73;6.88;;;8.40;60.40;;;;;;5070188;28;20070;-68
2022/01/15 02:56:22;;;;;;;11.93;6.35;;;8.40;60.50;;;;;;5070660;28;20043;-66
2022/01/15 02:58:48;;;;;;;11.75;6.65;;;8.50;60.40;;;;;;5069924;28;20040;-68
2022/01/15 03:01:14;;;;;;;10.18;6.85;;;8.50;60.20;;;;;;5080586;28;20056;-67
2022/01/15 03:03:40;;;;;;;10.23;6.70;;;8.50;60.40;;;;;;5070173;28;20075;-68
2022/01/15 03:06:13;;;;;;;11.30;6.53;;;8.50;59.80;;;;;;5070234;28;20029;-69
2022/01/15 03:08:40;;;;;;;10.27;6.50;;;8.50;59.50;;;;;;5070769;28;20032;-68
2022/01/15 03:11:07;;;;;;;8.35;5.85;;;8.50;59.20;;;;;;5069216;28;20504;-67
2022/01/15 03:14:09;;;;;;;12.13;6.70;;;8.50;58.90;;;;;;5127573;27;20393;-69
2022/01/15 03:16:35;;;;;;;8.45;5.72;;;8.50;58.80;;;;;;5091249;28;20450;-68
2022/01/15 03:19:01;;;;;;;9.57;6.15;;;8.50;58.40;;;;;;5107252;28;20032;-66
2022/01/15 03:21:26;;;;;;;10.60;5.88;;;8.40;58.40;;;;;;5091415;28;20028;-67
2022/01/15 03:23:52;;;;;;;8.07;5.50;;;8.50;58.40;;;;;;5108569;28;20115;-64
2022/01/15 03:26:18;;;;;;;8.20;5.72;;;8.60;58.10;;;;;;5090808;28;20024;-69
2022/01/15 03:28:44;;;;;;;9.07;5.97;;;8.60;58.00;;;;;;5109226;28;20020;-69
2022/01/15 03:31:10;;;;;;;10.65;6.13;;;8.70;57.60;;;;;;5090758;28;20031;-69
2022/01/15 03:33:36;;;;;;;8.23;6.05;;;8.70;57.70;;;;;;5107378;28;20031;-66
2022/01/15 03:36:02;;;;;;;9.23;5.93;;;8.60;57.70;;;;;;5107843;28;20027;-67
2022/01/15 03:38:28;;;;;;;9.70;6.50;;;8.70;57.70;;;;;;5090319;28;20035;-69
2022/01/15 03:40:54;;;;;;;9.38;6.00;;;8.60;57.80;;;;;;5108612;28;20024;-64
2022/01/15 03:43:20;;;;;;;9.15;6.57;;;8.60;57.90;;;;;;5108354;28;20106;-67
2022/01/15 03:45:46;;;;;;;9.73;6.13;;;8.50;58.10;;;;;;5108981;28;20103;-68
2022/01/15 03:48:12;;;;;;;9.27;6.22;;;8.60;58.10;;;;;;5107237;28;20028;-67
2022/01/15 03:50:37;;;;;;;9.45;5.72;;;8.70;58.00;;;;;;5090991;28;20024;-68
2022/01/15 03:53:03;;;;;;;9.88;6.13;;;8.70;57.90;;;;;;5108070;28;20476;-67
2022/01/15 03:55:29;;;;;;;9.95;6.30;;;8.70;57.80;;;;;;5108993;28;20055;-68
2022/01/15 03:57:54;;;;;;;10.25;6.65;;;8.70;57.90;;;;;;5108479;28;20380;-64
2022/01/15 04:00:24;;;;;;;10.38;6.28;;;8.70;57.80;;;;;;5108689;28;20036;-69
2022/01/15 04:02:51;;;;;;;10.02;5.20;;;8.70;57.70;;;;;;5108553;28;20031;-68
2022/01/15 04:05:16;;;;;;;8.00;5.30;;;8.70;57.60;;;;;;5089108;28;20056;-67
2022/01/15 04:07:42;;;;;;;10.00;5.75;;;8.60;57.50;;;;;;5108970;28;20082;-68
2022/01/15 04:10:10;;;;;;;12.07;5.80;;;8.60;57.40;;;;;;5108269;28;20028;-67
2022/01/15 04:12:36;;;;;;;10.50;5.15;;;8.60;57.50;;;;;;5100588;28;20126;-67
2022/01/15 04:15:03;;;;;;;9.80;5.60;;;8.60;57.20;;;;;;5069506;28;20469;-68
2022/01/15 04:17:29;;;;;;;11.20;5.72;;;8.60;57.20;;;;;;5088531;28;20020;-68
2022/01/15 04:19:56;;;;;;;11.77;5.13;;;8.60;57.10;;;;;;5087325;28;20438;-68
2022/01/15 04:22:21;;;;;;;9.57;4.85;;;8.60;56.50;;;;;;5087350;28;20421;-70
2022/01/15 04:24:47;;;;;;;8.18;4.75;;;8.60;56.20;;;;;;5044168;28;20030;-69
2022/01/15 04:27:13;;;;;;;7.13;4.80;;;8.60;56.00;;;;;;5074185;28;20423;-68
2022/01/15 04:29:39;;;;;;;9.48;5.10;;;8.50;55.90;;;;;;5074710;28;20028;-68
2022/01/15 04:32:05;;;;;;;8.60;4.63;;;8.50;55.90;;;;;;5073536;28;20051;-67
2022/01/15 04:34:31;;;;;;;9.43;5.47;;;8.50;55.60;;;;;;5073477;28;20397;-65
2022/01/15 04:37:06;;;;;;;6.60;4.20;;;8.50;55.60;;;;;;5074504;28;20029;-68
2022/01/15 04:39:31;;;;;;;6.93;4.47;;;8.50;55.80;;;;;;5069477;28;20111;-69
2022/01/15 04:41:58;;;;;;;8.52;4.90;;;8.50;55.60;;;;;;5064483;28;20060;-64
2022/01/15 04:44:23;;;;;;;9.25;5.47;;;8.50;56.30;;;;;;5074004;28;20386;-68
2022/01/15 04:46:49;;;;;;;10.52;5.07;;;8.60;55.60;;;;;;5074038;28;20024;-68
2022/01/15 04:49:15;;;;;;;9.27;4.88;;;8.60;55.50;;;;;;5073573;28;20031;-68
2022/01/15 04:51:40;;;;;;;7.60;4.57;;;8.60;55.50;;;;;;5072976;28;20024;-68
2022/01/15 04:54:06;;;;;;;7.55;4.65;;;8.70;55.50;;;;;;5073184;28;20123;-68
2022/01/15 04:56:32;;;;;;;8.25;4.65;;;8.70;55.60;;;;;;5056017;28;20135;-67
2022/01/15 04:58:57;;;;;;;7.07;4.93;;;8.70;55.70;;;;;;5072114;28;20036;-68
2022/01/15 05:01:23;;;;;;;12.05;5.18;;;8.70;55.70;;;;;;5072221;28;20107;-66
2022/01/15 05:03:49;;;;;;;8.35;4.53;;;8.70;55.80;;;;;;5054474;28;20056;-67
2022/01/15 05:06:15;;;;;;;8.13;4.82;;;8.70;55.70;;;;;;5073172;28;20121;-66
2022/01/15 05:08:44;;;;;;;7.47;4.95;;;8.70;55.70;;;;;;5072350;28;20039;-68
2022/01/15 05:11:14;;;;;;;8.93;5.05;;;8.70;55.70;;;;;;5063189;28;20037;-68
2022/01/15 05:13:40;;;;;;;8.80;5.30;;;8.70;55.70;;;;;;5071699;28;20047;-66
2022/01/15 05:16:07;;;;;;;9.00;5.13;;;8.70;55.70;;;;;;5071991;28;20119;-67
2022/01/15 05:18:33;;;;;;;9.68;5.22;;;8.80;55.60;;;;;;5071912;28;20089;-67
2022/01/15 05:20:58;;;;;;;8.80;5.63;;;8.80;55.50;;;;;;5072173;28;20466;-67
2022/01/15 05:23:24;;;;;;;11.48;5.85;;;8.80;55.50;;;;;;5070563;28;20048;-65
2022/01/15 05:28:34;;;;;;;11.57;6.07;;;8.80;55.80;;;;;;5068653;28;20070;-68
2022/01/15 05:31:00;;;;;;;9.55;6.32;;;8.70;56.00;;;;;;5071759;28;20028;-67
2022/01/15 05:33:25;;;;;;;12.05;7.03;;;8.70;56.50;;;;;;5071129;28;20037;-66
2022/01/15 05:35:51;;;;;;;9.73;6.72;;;8.60;56.60;;;;;;5071676;28;20491;-66
2022/01/15 05:38:17;;;;;;;11.93;7.20;;;8.60;56.70;;;;;;5070298;28;20072;-65
2022/01/15 05:40:42;;;;;;;12.95;7.68;;;8.60;56.70;;;;;;5053778;28;20024;-67
2022/01/15 05:43:08;;;;;;;13.45;7.60;;;8.60;56.90;;;;;;5070351;28;20165;-66
2022/01/15 05:45:34;;;;;;;12.25;7.60;;;8.50;57.10;;;;;;5071291;28;20048;-67
2022/01/15 05:47:59;;;;;;;11.60;7.40;;;8.40;57.20;;;;;;5053410;28;20032;-68
2022/01/15 05:50:25;;;;;;;11.55;7.93;;;8.50;57.20;;;;;;5071396;28;20024;-66
2022/01/15 05:52:51;;;;;;;10.27;7.35;;;8.50;57.20;;;;;;5070996;28;20048;-68
2022/01/15 05:55:17;;;;;;;13.80;7.95;;;8.50;57.10;;;;;;5071579;28;20025;-65
2022/01/15 05:57:42;;;;;;;12.82;7.18;;;8.50;57.10;;;;;;5069884;28;20075;-66
2022/01/15 06:00:09;;;;;;;11.52;7.35;;;8.50;57.00;;;;;;5070868;28;20040;-67
2022/01/15 06:02:35;;;;;;;13.20;8.32;;;8.60;57.00;;;;;;5070457;28;20072;-66
2022/01/15 06:05:00;;;;;;;13.40;7.22;;;8.60;56.90;;;;;;5071741;28;20109;-68
2022/01/15 06:07:26;;;;;;;12.13;6.88;;;8.60;56.60;;;;;;5033936;28;20094;-65
2022/01/15 06:09:52;;;;;;;13.02;7.25;;;8.60;56.50;;;;;;5071237;28;20032;-67
2022/01/15 06:12:18;;;;;;;11.30;6.88;;;8.60;56.30;;;;;;5070208;28;20206;-66
2022/01/15 06:14:44;;;;;;;14.10;6.97;;;8.70;56.30;;;;;;5071853;28;20457;-67
2022/01/15 06:17:10;;;;;;;12.73;7.13;;;8.70;56.00;;;;;;5052535;28;20051;-68
2022/01/15 06:19:37;;;;;;;12.15;6.63;;;8.70;56.00;;;;;;5052132;28;20082;-66
2022/01/15 06:22:03;;;;;;;11.07;6.78;;;8.70;55.80;;;;;;5064623;28;20103;-66
2022/01/15 06:24:30;;;;;;;10.32;6.35;;;8.70;55.70;;;;;;5069526;28;20059;-66
2022/01/15 06:26:56;;;;;;;12.77;6.53;;;8.70;55.60;;;;;;5071063;28;20063;-67
2022/01/15 06:29:22;;;;;;;13.90;7.05;;;8.70;55.50;;;;;;5069657;28;20041;-66
2022/01/15 06:31:48;;;;;;;9.60;6.47;;;8.70;55.40;;;;;;5053012;28;20487;-67
2022/01/15 06:34:14;;;;;;;12.05;6.20;;;8.70;55.40;;;;;;5070527;28;20048;-67
2022/01/15 06:36:39;;;;;;;10.70;5.47;;;8.70;55.20;;;;;;5052173;28;20115;-67
2022/01/15 06:39:06;;;;;;;8.90;5.32;;;8.60;55.20;;;;;;5070528;28;20040;-65
2022/01/15 06:41:31;;;;;;;12.27;6.05;;;8.60;55.20;;;;;;5065773;28;20024;-68
2022/01/15 06:43:57;;;;;;;11.32;6.05;;;8.60;55.30;;;;;;5071079;28;20044;-67
2022/01/15 06:46:23;;;;;;;11.70;6.03;;;8.60;55.50;;;;;;5069369;28;20025;-65
2022/01/15 06:48:49;;;;;;;11.70;6.57;;;8.60;55.50;;;;;;5070035;28;20043;-67
2022/01/15 06:51:14;;;;;;;12.10;6.88;;;8.60;55.30;;;;;;5069791;28;20123;-66
2022/01/15 06:53:40;;;;;;;11.27;7.07;;;8.60;55.30;;;;;;5070551;28;20041;-66
2022/01/15 06:56:06;;;;;;;13.48;7.68;;;8.60;55.20;;;;;;5070561;28;20363;-66
2022/01/15 06:58:32;;;;;;;12.55;6.18;;;8.70;55.20;;;;;;5050289;28;20390;-67
2022/01/15 07:00:58;;;;;;;13.40;6.68;;;8.70;55.10;;;;;;5052633;28;20037;-67
2022/01/15 07:03:24;;;;;;;10.82;6.47;;;8.60;55.00;;;;;;5068182;28;20035;-66
2022/01/15 07:05:49;;;;;;;11.75;6.57;;;8.60;55.00;;;;;;5070158;28;20032;-68
2022/01/15 07:08:15;;;;;;;11.13;6.55;;;8.70;55.10;;;;;;5069726;28;20025;-65
2022/01/15 07:10:41;;;;;;;11.98;6.85;;;8.60;54.90;;;;;;5069827;28;20041;-66
2022/01/15 07:13:08;;;;;;;9.85;5.90;;;8.60;54.80;;;;;;5069953;28;20060;-66
2022/01/15 07:15:34;;;;;;;9.73;6.10;;;8.60;54.80;;;;;;5069446;28;20040;-66
2022/01/15 07:18:00;;;;;;;10.38;5.90;;;8.60;54.90;;;;;;5069442;28;20028;-66
2022/01/15 07:20:26;;;;;;;9.63;5.85;;;8.60;54.80;;;;;;5067395;28;20081;-66
2022/01/15 07:23:11;;;;;;;11.25;6.03;;;8.60;54.60;;;;;;5052527;28;20031;-66
2022/01/15 07:25:36;;;;;;;11.55;5.70;;;8.60;54.60;;;;;;5051527;28;20155;-66
2022/01/15 07:28:02;;;;;;;10.07;6.03;;;8.60;54.70;;;;;;5070063;28;20028;-67
2022/01/15 07:30:28;;;;;;;9.32;5.78;;;8.70;54.60;;;;;;5069006;28;20492;-69
2022/01/15 07:32:53;;;;;;;9.38;6.10;;;8.70;54.50;;;;;;5069857;28;20037;-68
2022/01/15 07:35:19;;;;;;;15.90;6.63;;;8.80;54.50;;;;;;5069127;28;20037;-66
2022/01/15 07:37:45;;;;;;;11.07;6.38;;;8.80;54.40;;;;;;5068622;28;20416;-67
2022/01/15 07:40:11;;;;;;;13.50;7.20;;;8.90;54.20;;;;;;5069332;28;20104;-65
2022/01/15 07:42:40;;;;;;;11.75;7.18;;;8.80;54.10;;;;;;5070399;28;20089;-67
2022/01/15 07:45:09;;;;;;;9.80;6.35;;;8.80;54.20;;;;;;5050891;28;20458;-68
2022/01/15 07:47:35;;;;;;;10.30;6.72;;;8.90;54.10;;;;;;5063637;28;20477;-66
2022/01/15 07:50:02;;;;;;;11.13;6.85;;;8.80;54.10;;;;;;5070498;28;20130;-68
2022/01/15 07:52:28;;;;;;;10.35;7.40;;;8.80;54.30;;;;;;5068894;28;20080;-67
2022/01/15 07:54:54;;;;;;;9.82;6.78;;;8.80;54.30;;;;;;5068810;28;20094;-68
2022/01/15 07:57:19;;;;;;;10.93;6.95;;;8.80;54.30;;;;;;5068093;28;20470;-66
2022/01/15 07:59:45;;;;;;;11.63;7.80;;;8.90;54.30;;;;;;5070091;28;20031;-66
2022/01/15 08:02:11;;;;;;;11.80;7.65;;;8.90;54.00;;;;;;5072591;28;20505;-68
2022/01/15 08:04:37;;;;;;;11.77;7.38;;;8.90;54.00;;;;;;5071214;28;20127;-67
2022/01/15 08:07:03;;;;;;;12.88;6.45;;;8.90;53.90;;;;;;5070352;28;20488;-66
2022/01/15 08:09:29;;;;;;;12.05;7.03;;;8.90;53.70;;;;;;5070499;28;20025;-66
2022/01/15 08:11:54;;;;;;;10.30;6.15;;;8.90;53.70;;;;;;5071987;28;20036;-66
2022/01/15 08:14:20;;;;;;;12.00;7.75;;;8.90;53.60;;;;;;5072116;28;20512;-66
2022/01/15 08:16:46;;;;;;;10.77;6.72;;;8.90;53.70;;;;;;5052642;28;20436;-67
2022/01/15 08:19:11;;;;;;;10.93;6.22;;;9.00;53.70;;;;;;5072127;28;20033;-69
2022/01/15 08:21:38;;;;;;;12.23;6.28;;;9.10;53.30;;;;;;5069225;28;20078;-68
2022/01/15 08:24:04;;;;;;;11.95;6.22;;;9.10;53.00;;;;;;5072297;28;20020;-67
2022/01/15 08:26:29;;;;;;;11.13;6.82;;;9.10;53.00;;;;;;5071315;28;20044;-69
2022/01/15 08:28:56;;;;;;;9.68;6.30;;;9.10;52.60;;;;;;5072314;28;20079;-67
2022/01/15 08:31:22;;;;;;;9.60;6.22;;;9.10;52.50;;;;;;5071009;28;20028;-66
2022/01/15 08:33:47;;;;;;;13.02;7.32;;;9.10;52.50;;;;;;5054429;28;20055;-66
2022/01/15 08:36:13;;;;;;;10.00;6.72;;;9.20;52.50;;;;;;5071986;28;20445;-65
2022/01/15 08:38:39;;;;;;;11.65;6.68;;;9.20;52.30;;;;;;5070788;28;20040;-67
2022/01/15 08:41:05;;;;;;;12.27;6.40;;;9.30;52.30;;;;;;5070305;28;20023;-68
2022/01/15 08:43:30;;;;;;;11.32;6.50;;;9.30;52.00;;;;;;5067665;28;20094;-67
2022/01/15 08:45:56;;;;;;;12.15;7.03;;;9.30;52.00;;;;;;5049292;28;20024;-67
2022/01/15 08:48:22;;;;;;;13.18;7.38;;;9.30;51.90;;;;;;5057810;28;20097;-67
2022/01/15 08:50:49;;;;;;;12.30;6.32;;;9.30;52.10;;;;;;5070655;28;20089;-67
2022/01/15 08:53:17;;;;;;;13.20;7.30;;;9.20;52.20;;;;;;5051574;28;20062;-65
2022/01/15 08:55:44;;;;;;;12.57;6.85;;;9.20;52.10;;;;;;5070948;28;20029;-66
2022/01/15 08:58:10;;;;;;;12.82;7.40;;;9.20;52.30;;;;;;5050020;28;20037;-67
2022/01/15 09:00:36;;;;;;;10.45;6.80;;;9.30;52.30;;;;;;5070466;28;20309;-67
2022/01/15 09:03:02;;;;;;;15.38;7.30;;;9.40;51.90;;;;;;5053097;28;20051;-67
2022/01/15 09:05:30;;;;;;;10.95;7.05;;;9.50;51.60;;;;;;5069034;28;20474;-69
2022/01/15 09:07:56;;;;;;;12.82;7.78;;;9.50;51.10;;;;;;5071503;28;20035;-67
2022/01/15 09:10:22;;;;;;;12.13;6.65;;;9.50;51.00;;;;;;5063889;28;20792;-68
2022/01/15 09:12:48;;;;;;;13.43;7.18;;;9.50;51.00;;;;;;5071467;28;20182;-66
2022/01/15 09:15:15;;;;;;;12.30;7.47;;;9.50;51.10;;;;;;5066279;28;20112;-67
2022/01/15 09:17:47;;;;;;;12.88;6.05;;;9.70;51.10;;;;;;5069971;28;20020;-66
2022/01/15 09:20:14;;;;;;;11.35;6.47;;;9.70;50.40;;;;;;5066950;28;20037;-67
2022/01/15 09:22:40;;;;;;;13.02;6.32;;;9.70;50.40;;;;;;5050076;28;20028;-67
2022/01/15 09:25:07;;;;;;;12.82;6.60;;;9.80;50.40;;;;;;5068938;28;20055;-67
2022/01/15 09:30:17;;;;;;;8.90;5.60;;;10.00;50.10;;;;;;5057024;28;20144;-70
2022/01/15 09:32:45;;;;;;;9.68;5.55;;;10.10;49.60;;;;;;5055040;28;20127;-66
2022/01/15 09:35:13;;;;;;;10.50;6.25;;;10.10;49.40;;;;;;5056773;28;20128;-66
2022/01/15 09:37:40;;;;;;;15.75;8.90;;;10.10;49.40;;;;;;5038082;28;20282;-68
2022/01/15 09:40:07;;;;;;;13.32;6.75;;;10.10;49.50;;;;;;5056852;28;20033;-68
2022/01/15 09:42:34;;;;;;;11.13;7.38;;;10.10;49.30;;;;;;5069623;28;20371;-66
2022/01/15 09:45:02;;;;;;;15.50;5.97;;;10.20;49.50;;;;;;5052079;28;20040;-68
2022/01/15 09:47:29;;;;;;;8.55;5.50;;;10.20;49.20;;;;;;5048166;28;20393;-69
2022/01/15 09:49:57;;;;;;;13.52;5.97;;;10.20;49.10;;;;;;5056536;28;20044;-69
2022/01/15 09:52:23;;;;;;;11.02;4.90;;;10.30;49.10;;;;;;5042221;28;20032;-70
2022/01/15 09:54:50;;;;;;;9.10;4.75;;;10.30;48.70;;;;;;5068098;28;20037;-68
2022/01/15 09:57:17;;;;;;;9.57;5.22;;;10.40;48.60;;;;;;5067834;28;20017;-69
2022/01/15 09:59:43;;;;;;;11.98;5.50;;;10.40;48.50;;;;;;5055339;28;20065;-69
2022/01/15 10:02:09;;;;;;;8.88;4.88;;;10.40;48.20;;;;;;5063265;28;20444;-69
2022/01/15 10:04:35;;;;;;;8.32;4.95;;;10.40;47.70;;;;;;5061937;28;20035;-68
2022/01/15 10:07:11;;;;;;;6.57;4.32;;;10.40;48.00;;;;;;5069539;28;20539;-67
2022/01/15 10:09:37;;;;;;;9.93;4.57;;;10.40;47.50;;;;;;5054252;28;20026;-67
2022/01/15 10:12:04;;;;;;;10.10;4.28;;;10.40;47.60;;;;;;5071145;28;20124;-69
2022/01/15 10:14:34;;;;;;;7.32;4.13;;;10.40;47.30;;;;;;5059513;28;20367;-67
2022/01/15 10:17:03;;;;;;;9.25;4.70;;;10.40;47.30;;;;;;5065963;28;20024;-69
2022/01/15 10:19:34;;;;;;;9.38;4.43;;;10.40;47.20;;;;;;5053541;28;20029;-68
2022/01/15 10:22:12;;;;;;;8.35;4.53;;;10.50;47.10;;;;;;5063480;28;20025;-69
2022/01/15 10:24:40;;;;;;;8.23;4.88;;;10.50;47.00;;;;;;5062845;28;20044;-68
2022/01/15 10:27:22;;;;;;;7.72;4.15;;;10.50;46.80;;;;;;5070846;28;20067;-69
2022/01/15 10:30:13;;;;;;;7.32;3.90;;;10.50;47.00;;;;;;5055768;28;20021;-67
2022/01/15 10:32:51;;;;;;;8.45;4.20;;;10.70;46.50;;;;;;5058315;28;20045;-70
2022/01/15 10:35:20;;;;;;;10.90;4.75;;;10.70;46.50;;;;;;5038639;28;20086;-69
2022/01/15 10:37:56;;;;;;;11.02;5.32;;;10.70;46.50;;;;;;5045474;28;20511;-68
2022/01/15 10:40:43;;;;;;;10.60;4.68;;;10.60;46.60;;;;;;5069109;28;20028;-68
2022/01/15 10:43:11;;;;;;;9.20;5.35;;;10.70;46.80;;;;;;5055149;28;20045;-68
2022/01/15 10:45:58;;;;;;;8.50;4.53;;;10.70;46.10;;;;;;5068053;28;20032;-68
2022/01/15 10:48:33;;;;;;;9.35;4.80;;;10.60;46.30;;;;;;5060277;28;20040;-68
2022/01/15 10:51:06;;;;;;;10.70;4.97;;;10.80;45.90;;;;;;5047943;28;20031;-67
2022/01/15 10:53:38;;;;;;;7.93;4.97;;;11.20;45.70;;;;;;5051608;28;20056;-69
2022/01/15 10:56:06;;;;;;;9.25;4.78;;;11.40;44.70;;;;;;5064703;28;20135;-69
2022/01/15 10:58:32;;;;;;;8.13;4.68;;;11.30;44.60;;;;;;5050097;28;20032;-68
2022/01/15 11:00:58;;;;;;;10.15;5.35;;;11.20;44.50;;;;;;5043844;28;20028;-69
2022/01/15 11:03:38;;;;;;;10.90;5.63;;;11.30;44.70;;;;;;5037125;28;20040;-69
2022/01/15 11:06:05;;;;;;;10.35;5.00;;;11.40;44.70;;;;;;5025581;28;20040;-71
2022/01/15 11:08:36;;;;;;;14.00;5.10;;;11.40;44.50;;;;;;5063656;28;20401;-69
2022/01/15 11:11:06;;;;;;;8.95;4.53;;;11.40;44.40;;;;;;5044695;28;20033;-70
2022/01/15 11:13:35;;;;;;;13.50;7.15;;;11.40;44.30;;;;;;5053979;28;20078;-68
2022/01/15 11:16:05;;;;;;;9.85;4.70;;;11.30;44.60;;;;;;5051237;28;20032;-70
2022/01/15 11:18:34;;;;;;;8.18;4.63;;;11.40;44.60;;;;;;5068795;28;20536;-70
2022/01/15 11:21:03;;;;;;;14.25;5.75;;;11.60;44.10;;;;;;5070216;28;20123;-68
2022/01/15 11:23:31;;;;;;;8.55;4.65;;;11.40;43.50;;;;;;5051598;28;20473;-69
2022/01/15 11:25:59;;;;;;;9.50;4.00;;;11.30;44.10;;;;;;5070308;28;20017;-69
2022/01/15 11:28:27;;;;;;;8.23;3.95;;;11.30;44.10;;;;;;5068977;28;20100;-69
2022/01/15 11:31:08;;;;;;;17.17;6.80;;;11.30;44.20;;;;;;5069249;28;20028;-68
2022/01/15 11:33:37;;;;;;;12.13;5.07;;;11.30;44.20;;;;;;5052810;28;20472;-68
2022/01/15 11:36:05;;;;;;;10.23;5.25;;;11.40;44.50;;;;;;5074618;28;20056;-69
2022/01/15 11:38:34;;;;;;;12.05;6.00;;;12.00;44.50;;;;;;5073633;28;20501;-69
2022/01/15 11:40:59;;;;;;;8.93;5.10;;;12.00;43.10;;;;;;5055114;28;20135;-68
2022/01/15 11:43:25;;;;;;;8.88;4.53;;;12.00;43.30;;;;;;5073678;28;20039;-67
2022/01/15 11:45:56;;;;;;;8.90;4.55;;;11.80;43.60;;;;;;5074163;28;20029;-69
2022/01/15 11:48:27;;;;;;;8.82;4.72;;;11.80;43.80;;;;;;5074535;28;20029;-68
2022/01/15 11:51:14;;;;;;;10.90;5.00;;;11.80;43.90;;;;;;5074090;28;20021;-69
2022/01/15 11:53:51;;;;;;;9.15;4.68;;;11.80;43.40;;;;;;5054891;28;20044;-69
2022/01/15 11:56:20;;;;;;;9.70;4.82;;;11.70;43.70;;;;;;5073176;28;20027;-67
2022/01/15 11:58:46;;;;;;;7.85;4.75;;;11.40;44.00;;;;;;5073808;28;20028;-69
2022/01/15 12:01:44;;;;;;;7.63;4.25;;;11.30;44.30;;;;;;5056289;28;20477;-69
2022/01/15 12:04:29;;;;;;;9.73;4.82;;;12.00;44.20;;;;;;5067603;28;20079;-68
2022/01/15 12:07:07;;;;;;;6.82;4.22;;;12.20;43.10;;;;;;5073631;28;20055;-69
2022/01/15 12:09:50;;;;;;;8.05;4.55;;;11.80;43.30;;;;;;5055657;28;20077;-69
2022/01/15 12:14:51;;;;;;;10.07;4.72;;;11.50;44.00;;;;;;5073408;28;20043;-68
2022/01/15 12:17:46;;;;;;;8.27;4.78;;;11.50;44.20;;;;;;5074037;28;20028;-68
2022/01/15 12:20:21;;;;;;;12.68;7.07;;;11.60;44.00;;;;;;5056176;28;20028;-70
2022/01/15 12:23:18;;;;;;;11.38;4.93;;;11.40;44.20;;;;;;5055258;28;20037;-69
2022/01/15 12:25:44;;;;;;;9.82;5.25;;;11.40;44.30;;;;;;5053375;28;20075;-68
2022/01/15 12:28:13;;;;;;;9.43;4.03;;;11.50;44.50;;;;;;5072422;28;20519;-69
2022/01/15 12:30:42;;;;;;;13.98;6.22;;;11.50;44.30;;;;;;5054642;28;20477;-69
2022/01/15 12:33:12;;;;;;;12.40;5.25;;;11.50;44.20;;;;;;5073485;28;20123;-69
2022/01/15 12:38:28;;;;;;;26.85;14.25;;;11.40;44.30;;;;;;5053526;28;20086;-69
2022/01/15 12:40:57;;;;;;;16.50;8.70;;;11.30;44.40;;;;;;5073587;28;20020;-69
2022/01/15 12:43:26;;;;;;;10.68;5.30;;;11.30;44.40;;;;;;5072156;28;20036;-69
2022/01/15 12:45:54;;;;;;;9.48;4.50;;;11.30;44.50;;;;;;5072090;28;20142;-68
2022/01/15 12:48:25;;;;;;;12.02;6.20;;;11.20;44.40;;;;;;5072106;28;20021;-70
2022/01/15 12:50:52;;;;;;;26.92;15.30;;;11.00;44.50;;;;;;5054682;28;20028;-69
2022/01/15 12:53:26;;;;;;;20.08;11.80;;;10.90;44.80;;;;;;5055472;28;20048;-69
2022/01/15 12:55:53;;;;;;;11.88;5.50;;;10.80;45.20;;;;;;5072671;28;20041;-69
2022/01/15 12:58:23;;;;;;;10.05;5.35;;;10.70;45.20;;;;;;5055423;28;20473;-69
2022/01/15 13:00:51;;;;;;;14.00;4.85;;;10.70;45.40;;;;;;5053600;28;20201;-68
2022/01/15 13:03:22;;;;;;;9.45;4.47;;;10.60;45.60;;;;;;5072941;28;21534;-71
2022/01/15 13:06:00;;;;;;;9.63;5.03;;;10.60;45.60;;;;;;5072117;28;20054;-68
2022/01/15 13:08:42;;;;;;;15.77;7.03;;;10.50;45.80;;;;;;5035356;28;20025;-66
2022/01/15 13:13:46;;;;;;;13.85;4.95;;;10.50;46.00;;;;;;5071922;28;20048;-68
2022/01/15 13:16:16;;;;;;;8.95;4.53;;;10.50;45.90;;;;;;5036695;28;20303;-69
2022/01/15 13:18:44;;;;;;;9.23;4.78;;;10.50;46.00;;;;;;5064551;28;20031;-69
2022/01/15 13:21:20;;;;;;;7.78;4.75;;;10.50;46.00;;;;;;5072376;28;20025;-71
2022/01/15 13:23:46;;;;;;;13.35;5.55;;;10.50;46.10;;;;;;5071773;28;20052;-69
2022/01/15 13:26:14;;;;;;;11.43;5.60;;;10.40;46.10;;;;;;5072654;28;20028;-70